createdAt,value
2022-10-09T00:00:25.010Z,1018.13
2022-10-09T00:01:24.205Z,1018.12
2022-10-09T00:02:24.244Z,1018.09
2022-10-09T00:03:24.200Z,1018.09
2022-10-09T00:04:24.165Z,1018.05
2022-10-09T00:05:24.198Z,1018.07
2022-10-09T00:06:24.161Z,1018.06
2022-10-09T00:07:24.126Z,1018.10
2022-10-09T00:08:25.017Z,1018.05
2022-10-09T00:09:24.125Z,1018.08
2022-10-09T00:10:24.110Z,1018.07
2022-10-09T00:11:24.084Z,1018.05
2022-10-09T00:12:24.077Z,1018.05
2022-10-09T00:13:24.060Z,1018.05
2022-10-09T00:14:24.052Z,1018.04
2022-10-09T00:15:24.055Z,1018.01
2022-10-09T00:16:24.078Z,1018.07
2022-10-09T00:17:25.014Z,1018.02
2022-10-09T00:18:24.014Z,1018.08
2022-10-09T00:19:24.014Z,1018.03
2022-10-09T00:20:24.011Z,1018.09
2022-10-09T00:21:23.985Z,1018.03
2022-10-09T00:22:23.961Z,1018.07
2022-10-09T00:23:23.958Z,1018.03
2022-10-09T00:24:23.941Z,1018.06
2022-10-09T00:25:23.953Z,1018.06
2022-10-09T00:26:23.926Z,1018.03
2022-10-09T00:27:23.915Z,1018.06
2022-10-09T00:28:23.981Z,1018.04
2022-10-09T00:29:23.897Z,1018.05
2022-10-09T00:30:23.872Z,1018.02
2022-10-09T00:31:23.953Z,1018.08
2022-10-09T00:32:23.847Z,1018.07
2022-10-09T00:33:23.843Z,1018.08
2022-10-09T00:34:23.827Z,1018.09
2022-10-09T00:35:23.837Z,1018.08
2022-10-09T00:36:23.814Z,1018.08
2022-10-09T00:37:23.813Z,1018.06
2022-10-09T00:38:23.793Z,1018.05
2022-10-09T00:39:23.789Z,1018.04
2022-10-09T00:40:23.774Z,1018.09
2022-10-09T00:41:23.756Z,1018.05
2022-10-09T00:42:23.746Z,1018.08
2022-10-09T00:43:23.738Z,1018.05
2022-10-09T00:44:23.724Z,1018.05
2022-10-09T00:45:23.726Z,1018.03
2022-10-09T00:46:23.739Z,1018.00
2022-10-09T00:47:23.685Z,1018.01
2022-10-09T00:48:23.680Z,1018.03
2022-10-09T00:49:23.674Z,1018.03
2022-10-09T00:50:23.661Z,1018.00
2022-10-09T00:51:23.663Z,1017.99
2022-10-09T00:52:24.518Z,1018.01
2022-10-09T00:53:23.628Z,1018.02
2022-10-09T00:54:23.630Z,1017.99
2022-10-09T00:55:23.621Z,1018.01
2022-10-09T00:56:23.618Z,1018.02
2022-10-09T00:57:23.692Z,1017.99
2022-10-09T00:58:24.507Z,1017.99
2022-10-09T00:59:23.552Z,1018.00
2022-10-09T01:00:23.546Z,1017.95
2022-10-09T01:01:23.584Z,1017.99
2022-10-09T01:02:23.595Z,1018.01
2022-10-09T01:03:23.528Z,1018.00
2022-10-09T01:04:23.552Z,1018.00
2022-10-09T01:05:23.496Z,1018.00
2022-10-09T01:06:23.489Z,1018.01
2022-10-09T01:07:23.489Z,1017.99
2022-10-09T01:08:23.471Z,1018.00
2022-10-09T01:09:23.448Z,1017.99
2022-10-09T01:10:23.444Z,1017.99
2022-10-09T01:11:23.441Z,1018.01
2022-10-09T01:12:23.417Z,1018.00
2022-10-09T01:13:23.404Z,1017.99
2022-10-09T01:14:23.413Z,1017.97
2022-10-09T01:15:23.395Z,1017.95
2022-10-09T01:16:24.103Z,1017.99
2022-10-09T01:17:23.366Z,1017.97
2022-10-09T01:18:23.353Z,1017.98
2022-10-09T01:19:23.331Z,1018.00
2022-10-09T01:20:24.006Z,1018.03
2022-10-09T01:21:23.321Z,1017.99
2022-10-09T01:22:23.305Z,1018.02
2022-10-09T01:23:23.320Z,1018.01
2022-10-09T01:24:23.285Z,1018.03
2022-10-09T01:25:23.272Z,1018.03
2022-10-09T01:26:23.253Z,1018.01
2022-10-09T01:27:23.271Z,1018.04
2022-10-09T01:28:24.105Z,1018.01
2022-10-09T01:29:23.228Z,1018.02
2022-10-09T01:30:24.016Z,1018.01
2022-10-09T01:31:23.285Z,1018.04
2022-10-09T01:32:23.197Z,1017.98
2022-10-09T01:33:23.225Z,1017.97
2022-10-09T01:34:23.168Z,1017.94
2022-10-09T01:35:23.176Z,1017.93
2022-10-09T01:36:23.161Z,1017.98
2022-10-09T01:37:23.158Z,1017.97
2022-10-09T01:38:23.120Z,1017.93
2022-10-09T01:39:23.142Z,1017.95
2022-10-09T01:40:23.120Z,1017.93
2022-10-09T01:41:23.089Z,1017.89
2022-10-09T01:42:24.016Z,1017.86
2022-10-09T01:43:23.103Z,1017.86
2022-10-09T01:44:23.058Z,1017.85
2022-10-09T01:45:23.057Z,1017.85
2022-10-09T01:46:23.146Z,1017.86
2022-10-09T01:47:23.037Z,1017.87
2022-10-09T01:48:24.011Z,1017.89
2022-10-09T01:49:23.002Z,1017.87
2022-10-09T01:50:22.988Z,1017.85
2022-10-09T01:51:22.993Z,1017.86
2022-10-09T01:52:22.987Z,1017.86
2022-10-09T01:53:22.960Z,1017.84
2022-10-09T01:54:22.953Z,1017.86
2022-10-09T01:55:22.985Z,1017.85
2022-10-09T01:56:22.968Z,1017.84
2022-10-09T01:57:22.921Z,1017.84
2022-10-09T01:58:22.916Z,1017.80
2022-10-09T01:59:22.893Z,1017.82
2022-10-09T02:00:22.879Z,1017.83
2022-10-09T02:01:22.968Z,1017.82
2022-10-09T02:02:23.047Z,1017.83
2022-10-09T02:03:22.865Z,1017.85
2022-10-09T02:04:22.850Z,1017.81
2022-10-09T02:05:22.840Z,1017.80
2022-10-09T02:06:22.821Z,1017.82
2022-10-09T02:07:22.803Z,1017.84
2022-10-09T02:08:22.806Z,1017.78
2022-10-09T02:09:22.803Z,1017.81
2022-10-09T02:10:22.785Z,1017.76
2022-10-09T02:11:22.811Z,1017.83
2022-10-09T02:12:22.760Z,1017.74
2022-10-09T02:13:22.737Z,1017.77
2022-10-09T02:14:22.729Z,1017.75
2022-10-09T02:15:22.717Z,1017.79
2022-10-09T02:16:23.597Z,1017.78
2022-10-09T02:17:23.519Z,1017.79
2022-10-09T02:18:22.689Z,1017.78
2022-10-09T02:19:22.669Z,1017.77
2022-10-09T02:20:22.659Z,1017.77
2022-10-09T02:21:22.668Z,1017.79
2022-10-09T02:22:22.640Z,1017.80
2022-10-09T02:23:22.653Z,1017.81
2022-10-09T02:24:23.517Z,1017.84
2022-10-09T02:25:22.613Z,1017.83
2022-10-09T02:26:22.605Z,1017.86
2022-10-09T02:27:22.613Z,1017.82
2022-10-09T02:28:22.647Z,1017.83
2022-10-09T02:29:22.562Z,1017.81
2022-10-09T02:30:22.554Z,1017.81
2022-10-09T02:31:22.633Z,1017.83
2022-10-09T02:32:22.553Z,1017.82
2022-10-09T02:33:24.517Z,1017.83
2022-10-09T02:34:22.509Z,1017.78
2022-10-09T02:35:22.511Z,1017.81
2022-10-09T02:36:22.497Z,1017.71
2022-10-09T02:37:22.480Z,1017.79
2022-10-09T02:38:22.504Z,1017.75
2022-10-09T02:39:22.491Z,1017.73
2022-10-09T02:40:22.468Z,1017.80
2022-10-09T02:41:22.440Z,1017.75
2022-10-09T02:42:22.438Z,1017.74
2022-10-09T02:43:22.474Z,1017.73
2022-10-09T02:44:22.399Z,1017.71
2022-10-09T02:45:22.400Z,1017.72
2022-10-09T02:46:22.437Z,1017.75
2022-10-09T02:47:22.380Z,1017.74
2022-10-09T02:48:23.021Z,1017.75
2022-10-09T02:49:22.340Z,1017.72
2022-10-09T02:50:22.360Z,1017.76
2022-10-09T02:51:22.326Z,1017.72
2022-10-09T02:52:22.313Z,1017.77
2022-10-09T02:53:22.296Z,1017.76
2022-10-09T02:54:22.299Z,1017.76
2022-10-09T02:55:22.283Z,1017.71
2022-10-09T02:56:22.292Z,1017.71
2022-10-09T02:57:22.266Z,1017.71
2022-10-09T02:58:22.241Z,1017.70
2022-10-09T02:59:22.268Z,1017.72
2022-10-09T03:00:22.231Z,1017.69
2022-10-09T03:01:22.273Z,1017.73
2022-10-09T03:02:22.407Z,1017.69
2022-10-09T03:03:22.199Z,1017.70
2022-10-09T03:04:22.178Z,1017.69
2022-10-09T03:05:23.003Z,1017.68
2022-10-09T03:06:22.157Z,1017.63
2022-10-09T03:07:22.176Z,1017.65
2022-10-09T03:08:22.148Z,1017.64
2022-10-09T03:09:22.129Z,1017.63
2022-10-09T03:10:23.016Z,1017.66
2022-10-09T03:11:22.106Z,1017.68
2022-10-09T03:12:22.102Z,1017.65
2022-10-09T03:13:22.093Z,1017.65
2022-10-09T03:14:22.078Z,1017.64
2022-10-09T03:15:22.090Z,1017.63
2022-10-09T03:16:22.160Z,1017.63
2022-10-09T03:17:22.048Z,1017.64
2022-10-09T03:18:22.032Z,1017.63
2022-10-09T03:19:22.025Z,1017.66
2022-10-09T03:20:22.004Z,1017.69
2022-10-09T03:21:21.998Z,1017.67
2022-10-09T03:22:21.979Z,1017.67
2022-10-09T03:23:21.968Z,1017.67
2022-10-09T03:24:21.985Z,1017.63
2022-10-09T03:25:21.960Z,1017.64
2022-10-09T03:26:21.953Z,1017.63
2022-10-09T03:27:21.935Z,1017.65
2022-10-09T03:28:22.026Z,1017.64
2022-10-09T03:29:21.911Z,1017.69
2022-10-09T03:30:21.889Z,1017.64
2022-10-09T03:31:39.763Z,1017.65
2022-10-09T03:32:22.940Z,1017.68
2022-10-09T03:33:21.874Z,1017.65
2022-10-09T03:34:21.857Z,1017.64
2022-10-09T03:35:21.837Z,1017.60
2022-10-09T03:36:21.826Z,1017.60
2022-10-09T03:37:21.834Z,1017.60
2022-10-09T03:38:21.806Z,1017.58
2022-10-09T03:39:21.803Z,1017.53
2022-10-09T03:40:21.788Z,1017.57
2022-10-09T03:41:21.785Z,1017.58
2022-10-09T03:42:21.758Z,1017.59
2022-10-09T03:43:21.769Z,1017.60
2022-10-09T03:44:21.747Z,1017.55
2022-10-09T03:45:21.732Z,1017.54
2022-10-09T03:46:21.801Z,1017.53
2022-10-09T03:47:21.727Z,1017.59
2022-10-09T03:48:21.732Z,1017.57
2022-10-09T03:49:21.692Z,1017.58
2022-10-09T03:50:21.690Z,1017.55
2022-10-09T03:51:21.669Z,1017.56
2022-10-09T03:52:21.649Z,1017.57
2022-10-09T03:53:22.538Z,1017.54
2022-10-09T03:54:21.650Z,1017.55
2022-10-09T03:55:21.634Z,1017.51
2022-10-09T03:56:21.607Z,1017.53
2022-10-09T03:57:22.506Z,1017.54
2022-10-09T03:58:21.584Z,1017.55
2022-10-09T03:59:21.577Z,1017.58
2022-10-09T04:00:21.614Z,1017.57
2022-10-09T04:01:21.631Z,1017.53
2022-10-09T04:02:21.604Z,1017.52
2022-10-09T04:03:21.560Z,1017.53
2022-10-09T04:04:22.505Z,1017.51
2022-10-09T04:05:21.524Z,1017.50
2022-10-09T04:06:21.508Z,1017.53
2022-10-09T04:07:21.530Z,1017.55
2022-10-09T04:08:21.489Z,1017.54
2022-10-09T04:09:21.462Z,1017.56
2022-10-09T04:10:21.451Z,1017.57
2022-10-09T04:11:21.459Z,1017.52
2022-10-09T04:12:22.006Z,1017.55
2022-10-09T04:13:21.433Z,1017.56
2022-10-09T04:14:23.015Z,1017.49
2022-10-09T04:15:22.006Z,1017.55
2022-10-09T04:16:21.439Z,1017.53
2022-10-09T04:17:21.389Z,1017.52
2022-10-09T04:18:21.376Z,1017.53
2022-10-09T04:19:21.383Z,1017.49
2022-10-09T04:20:21.357Z,1017.46
2022-10-09T04:21:21.345Z,1017.45
2022-10-09T04:22:21.322Z,1017.44
2022-10-09T04:23:21.319Z,1017.44
2022-10-09T04:24:21.314Z,1017.46
2022-10-09T04:25:21.300Z,1017.39
2022-10-09T04:26:21.283Z,1017.43
2022-10-09T04:27:21.267Z,1017.42
2022-10-09T04:28:22.075Z,1017.41
2022-10-09T04:29:21.997Z,1017.38
2022-10-09T04:30:21.250Z,1017.38
2022-10-09T04:31:21.299Z,1017.39
2022-10-09T04:32:21.217Z,1017.37
2022-10-09T04:33:21.202Z,1017.37
2022-10-09T04:34:21.195Z,1017.36
2022-10-09T04:35:21.213Z,1017.33
2022-10-09T04:36:22.004Z,1017.38
2022-10-09T04:37:21.155Z,1017.37
2022-10-09T04:38:21.161Z,1017.34
2022-10-09T04:39:22.011Z,1017.34
2022-10-09T04:40:21.135Z,1017.31
2022-10-09T04:41:21.122Z,1017.30
2022-10-09T04:42:21.121Z,1017.32
2022-10-09T04:43:21.096Z,1017.29
2022-10-09T04:44:21.086Z,1017.32
2022-10-09T04:45:21.078Z,1017.29
2022-10-09T04:46:21.082Z,1017.27
2022-10-09T04:47:21.056Z,1017.29
2022-10-09T04:48:21.053Z,1017.30
2022-10-09T04:49:21.051Z,1017.21
2022-10-09T04:50:21.020Z,1017.25
2022-10-09T04:51:21.036Z,1017.24
2022-10-09T04:52:20.992Z,1017.27
2022-10-09T04:53:20.987Z,1017.26
2022-10-09T04:54:21.532Z,1017.25
2022-10-09T04:55:20.970Z,1017.24
2022-10-09T04:56:20.975Z,1017.22
2022-10-09T04:57:20.948Z,1017.22
2022-10-09T04:58:20.934Z,1017.18
2022-10-09T04:59:20.920Z,1017.19
2022-10-09T05:00:20.928Z,1017.23
2022-10-09T05:01:21.094Z,1017.24
2022-10-09T05:02:20.961Z,1017.27
2022-10-09T05:03:20.897Z,1017.22
2022-10-09T05:04:20.885Z,1017.20
2022-10-09T05:05:20.900Z,1017.23
2022-10-09T05:06:20.844Z,1017.24
2022-10-09T05:07:20.855Z,1017.16
2022-10-09T05:08:20.817Z,1017.18
2022-10-09T05:09:20.804Z,1017.16
2022-10-09T05:10:20.802Z,1017.19
2022-10-09T05:11:20.789Z,1017.21
2022-10-09T05:12:20.789Z,1017.24
2022-10-09T05:13:20.772Z,1017.27
2022-10-09T05:14:20.750Z,1017.28
2022-10-09T05:15:20.737Z,1017.24
2022-10-09T05:16:20.814Z,1017.24
2022-10-09T05:17:23.155Z,1017.23
2022-10-09T05:18:20.707Z,1017.25
2022-10-09T05:19:20.704Z,1017.26
2022-10-09T05:20:20.710Z,1017.25
2022-10-09T05:21:20.691Z,1017.21
2022-10-09T05:22:20.671Z,1017.20
2022-10-09T05:23:20.672Z,1017.15
2022-10-09T05:24:20.666Z,1017.19
2022-10-09T05:25:20.688Z,1017.18
2022-10-09T05:26:20.616Z,1017.16
2022-10-09T05:27:20.607Z,1017.21
2022-10-09T05:28:20.632Z,1017.17
2022-10-09T05:29:20.592Z,1017.19
2022-10-09T05:30:20.580Z,1017.23
2022-10-09T05:31:20.652Z,1017.24
2022-10-09T05:32:20.560Z,1017.21
2022-10-09T05:33:20.546Z,1017.21
2022-10-09T05:34:20.535Z,1017.21
2022-10-09T05:35:21.503Z,1017.18
2022-10-09T05:36:20.516Z,1017.24
2022-10-09T05:37:20.525Z,1017.23
2022-10-09T05:38:20.487Z,1017.25
2022-10-09T05:39:20.637Z,1017.26
2022-10-09T05:40:22.763Z,1017.28
2022-10-09T05:41:20.458Z,1017.27
2022-10-09T05:42:20.465Z,1017.28
2022-10-09T05:43:20.432Z,1017.24
2022-10-09T05:44:20.430Z,1017.28
2022-10-09T05:45:20.429Z,1017.27
2022-10-09T05:46:20.485Z,1017.27
2022-10-09T05:47:20.416Z,1017.25
2022-10-09T05:48:20.391Z,1017.24
2022-10-09T05:49:20.396Z,1017.26
2022-10-09T05:50:20.352Z,1017.24
2022-10-09T05:51:20.344Z,1017.23
2022-10-09T05:52:20.348Z,1017.24
2022-10-09T05:53:20.322Z,1017.20
2022-10-09T05:54:20.325Z,1017.17
2022-10-09T05:55:20.401Z,1017.20
2022-10-09T05:56:20.287Z,1017.17
2022-10-09T05:57:20.993Z,1017.17
2022-10-09T05:58:20.299Z,1017.15
2022-10-09T05:59:20.261Z,1017.20
2022-10-09T06:00:20.250Z,1017.18
2022-10-09T06:01:20.297Z,1017.19
2022-10-09T06:02:20.271Z,1017.19
2022-10-09T06:03:20.219Z,1017.18
2022-10-09T06:04:20.216Z,1017.16
2022-10-09T06:05:21.013Z,1017.20
2022-10-09T06:06:20.189Z,1017.19
2022-10-09T06:07:20.210Z,1017.18
2022-10-09T06:08:20.993Z,1017.17
2022-10-09T06:09:22.021Z,1017.17
2022-10-09T06:10:20.151Z,1017.21
2022-10-09T06:11:20.152Z,1017.19
2022-10-09T06:12:20.119Z,1017.25
2022-10-09T06:13:20.115Z,1017.20
2022-10-09T06:14:21.013Z,1017.19
2022-10-09T06:15:20.102Z,1017.19
2022-10-09T06:16:20.189Z,1017.18
2022-10-09T06:17:20.080Z,1017.17
2022-10-09T06:18:20.062Z,1017.16
2022-10-09T06:19:20.048Z,1017.15
2022-10-09T06:20:20.039Z,1017.19
2022-10-09T06:21:20.044Z,1017.18
2022-10-09T06:22:20.007Z,1017.18
2022-10-09T06:23:20.021Z,1017.23
2022-10-09T06:24:22.236Z,1017.25
2022-10-09T06:25:19.969Z,1017.20
2022-10-09T06:26:19.960Z,1017.21
2022-10-09T06:27:19.988Z,1017.24
2022-10-09T06:28:20.004Z,1017.23
2022-10-09T06:29:19.931Z,1017.17
2022-10-09T06:30:19.932Z,1017.24
2022-10-09T06:31:19.950Z,1017.23
2022-10-09T06:32:19.909Z,1017.18
2022-10-09T06:33:19.930Z,1017.22
2022-10-09T06:34:19.889Z,1017.21
2022-10-09T06:35:19.861Z,1017.19
2022-10-09T06:36:19.855Z,1017.18
2022-10-09T06:37:19.839Z,1017.16
2022-10-09T06:38:19.838Z,1017.17
2022-10-09T06:39:19.827Z,1017.15
2022-10-09T06:40:19.821Z,1017.14
2022-10-09T06:41:19.798Z,1017.20
2022-10-09T06:42:19.789Z,1017.18
2022-10-09T06:43:19.803Z,1017.19
2022-10-09T06:44:19.792Z,1017.16
2022-10-09T06:45:19.765Z,1017.19
2022-10-09T06:46:19.779Z,1017.20
2022-10-09T06:47:19.734Z,1017.21
2022-10-09T06:48:19.724Z,1017.24
2022-10-09T06:49:19.713Z,1017.26
2022-10-09T06:50:19.712Z,1017.23
2022-10-09T06:51:19.705Z,1017.23
2022-10-09T06:52:19.682Z,1017.17
2022-10-09T06:53:19.661Z,1017.25
2022-10-09T06:54:19.656Z,1017.22
2022-10-09T06:55:19.657Z,1017.25
2022-10-09T06:56:19.660Z,1017.27
2022-10-09T06:57:19.636Z,1017.29
2022-10-09T06:58:20.498Z,1017.26
2022-10-09T06:59:19.624Z,1017.27
2022-10-09T07:00:19.599Z,1017.28
2022-10-09T07:01:19.650Z,1017.28
2022-10-09T07:02:19.662Z,1017.28
2022-10-09T07:03:19.553Z,1017.30
2022-10-09T07:04:19.550Z,1017.30
2022-10-09T07:05:19.542Z,1017.30
2022-10-09T07:06:19.541Z,1017.30
2022-10-09T07:07:19.515Z,1017.36
2022-10-09T07:08:19.514Z,1017.30
2022-10-09T07:09:19.493Z,1017.32
2022-10-09T07:10:24.269Z,1017.27
2022-10-09T07:11:20.475Z,1017.27
2022-10-09T07:12:19.460Z,1017.25
2022-10-09T07:13:19.448Z,1017.25
2022-10-09T07:14:19.449Z,1017.28
2022-10-09T07:15:19.451Z,1017.28
2022-10-09T07:16:20.227Z,1017.25
2022-10-09T07:17:19.417Z,1017.28
2022-10-09T07:18:19.405Z,1017.31
2022-10-09T07:19:19.396Z,1017.31
2022-10-09T07:20:19.365Z,1017.29
2022-10-09T07:21:19.368Z,1017.36
2022-10-09T07:22:21.603Z,1017.36
2022-10-09T07:23:20.345Z,1017.26
2022-10-09T07:24:19.331Z,1017.28
2022-10-09T07:25:19.324Z,1017.27
2022-10-09T07:26:19.304Z,1017.28
2022-10-09T07:27:19.302Z,1017.29
2022-10-09T07:28:19.342Z,1017.28
2022-10-09T07:29:19.271Z,1017.23
2022-10-09T07:30:19.269Z,1017.20
2022-10-09T07:31:19.353Z,1017.17
2022-10-09T07:32:19.237Z,1017.22
2022-10-09T07:33:19.230Z,1017.20
2022-10-09T07:34:19.208Z,1017.20
2022-10-09T07:35:19.227Z,1017.19
2022-10-09T07:36:19.196Z,1017.19
2022-10-09T07:37:19.211Z,1017.21
2022-10-09T07:38:19.173Z,1017.21
2022-10-09T07:39:19.228Z,1017.13
2022-10-09T07:40:19.994Z,1017.11
2022-10-09T07:41:19.166Z,1017.16
2022-10-09T07:42:19.142Z,1017.19
2022-10-09T07:43:19.120Z,1017.19
2022-10-09T07:44:19.120Z,1017.15
2022-10-09T07:45:19.100Z,1017.14
2022-10-09T07:46:19.123Z,1017.11
2022-10-09T07:47:19.125Z,1017.13
2022-10-09T07:48:19.088Z,1017.16
2022-10-09T07:49:19.060Z,1017.09
2022-10-09T07:50:19.039Z,1017.11
2022-10-09T07:51:19.026Z,1017.09
2022-10-09T07:52:19.039Z,1017.04
2022-10-09T07:53:19.013Z,1017.08
2022-10-09T07:54:19.013Z,1017.05
2022-10-09T07:55:18.994Z,1017.10
2022-10-09T07:56:19.061Z,1017.01
2022-10-09T07:57:18.958Z,1017.04
2022-10-09T07:58:18.952Z,1017.04
2022-10-09T07:59:18.966Z,1017.01
2022-10-09T08:00:18.923Z,1017.01
2022-10-09T08:01:20.275Z,1017.03
2022-10-09T08:02:19.556Z,1016.98
2022-10-09T08:03:18.913Z,1017.00
2022-10-09T08:04:18.907Z,1017.03
2022-10-09T08:05:18.896Z,1016.98
2022-10-09T08:06:18.876Z,1017.04
2022-10-09T08:07:18.856Z,1017.01
2022-10-09T08:08:18.837Z,1017.04
2022-10-09T08:09:18.835Z,1016.98
2022-10-09T08:10:18.834Z,1017.03
2022-10-09T08:11:18.809Z,1016.95
2022-10-09T08:12:18.799Z,1016.99
2022-10-09T08:13:20.522Z,1016.98
2022-10-09T08:14:19.553Z,1017.01
2022-10-09T08:15:18.800Z,1016.97
2022-10-09T08:16:18.850Z,1016.98
2022-10-09T08:17:18.741Z,1017.00
2022-10-09T08:18:18.747Z,1016.95
2022-10-09T08:19:18.736Z,1016.95
2022-10-09T08:20:18.712Z,1016.93
2022-10-09T08:21:18.760Z,1016.96
2022-10-09T08:22:18.696Z,1016.96
2022-10-09T08:23:18.683Z,1016.97
2022-10-09T08:24:19.496Z,1016.95
2022-10-09T08:25:19.497Z,1016.99
2022-10-09T08:26:18.654Z,1016.94
2022-10-09T08:27:18.648Z,1016.95
2022-10-09T08:28:18.719Z,1016.92
2022-10-09T08:29:18.640Z,1016.92
2022-10-09T08:30:18.601Z,1016.90
2022-10-09T08:31:18.841Z,1016.92
2022-10-09T08:32:18.583Z,1016.89
2022-10-09T08:33:18.581Z,1016.92
2022-10-09T08:34:18.616Z,1016.88
2022-10-09T08:35:18.597Z,1016.90
2022-10-09T08:36:19.495Z,1016.88
2022-10-09T08:37:19.494Z,1016.85
2022-10-09T08:38:44.720Z,1016.85
2022-10-09T08:39:19.533Z,1016.80
2022-10-09T08:40:18.494Z,1016.80
2022-10-09T08:41:18.475Z,1016.79
2022-10-09T08:42:18.473Z,1016.81
2022-10-09T08:43:18.470Z,1016.79
2022-10-09T08:44:18.467Z,1016.83
2022-10-09T08:45:18.460Z,1016.78
2022-10-09T08:46:20.760Z,1016.78
2022-10-09T08:47:18.408Z,1016.77
2022-10-09T08:48:18.401Z,1016.78
2022-10-09T08:49:18.390Z,1016.76
2022-10-09T08:50:18.391Z,1016.70
2022-10-09T08:51:19.012Z,1016.66
2022-10-09T08:52:18.367Z,1016.67
2022-10-09T08:53:18.344Z,1016.70
2022-10-09T08:54:18.362Z,1016.73
2022-10-09T08:55:18.328Z,1016.67
2022-10-09T08:56:18.310Z,1016.66
2022-10-09T08:57:18.313Z,1016.69
2022-10-09T08:58:18.297Z,1016.67
2022-10-09T08:59:18.289Z,1016.63
2022-10-09T09:00:18.320Z,1016.64
2022-10-09T09:01:18.320Z,1016.69
2022-10-09T09:02:18.264Z,1016.62
2022-10-09T09:03:18.326Z,1016.64
2022-10-09T09:04:18.247Z,1016.60
2022-10-09T09:05:18.220Z,1016.57
2022-10-09T09:06:18.211Z,1016.51
2022-10-09T09:07:18.249Z,1016.51
2022-10-09T09:08:18.192Z,1016.47
2022-10-09T09:09:18.169Z,1016.46
2022-10-09T09:10:18.919Z,1016.46
2022-10-09T09:11:21.417Z,1016.43
2022-10-09T09:12:18.148Z,1016.46
2022-10-09T09:13:18.141Z,1016.42
2022-10-09T09:14:18.130Z,1016.45
2022-10-09T09:15:18.136Z,1016.43
2022-10-09T09:16:18.147Z,1016.46
2022-10-09T09:17:18.093Z,1016.43
2022-10-09T09:18:18.084Z,1016.41
2022-10-09T09:19:18.074Z,1016.37
2022-10-09T09:20:18.086Z,1016.31
2022-10-09T09:21:18.054Z,1016.29
2022-10-09T09:22:18.029Z,1016.34
2022-10-09T09:23:18.051Z,1016.33
2022-10-09T09:24:18.019Z,1016.33
2022-10-09T09:25:17.999Z,1016.34
2022-10-09T09:26:17.999Z,1016.32
2022-10-09T09:27:17.984Z,1016.29
2022-10-09T09:28:18.012Z,1016.24
2022-10-09T09:29:17.959Z,1016.25
2022-10-09T09:30:17.964Z,1016.19
2022-10-09T09:31:18.010Z,1016.18
2022-10-09T09:32:17.949Z,1016.20
2022-10-09T09:33:19.505Z,1016.19
2022-10-09T09:34:18.498Z,1016.20
2022-10-09T09:35:17.905Z,1016.18
2022-10-09T09:36:17.890Z,1016.13
2022-10-09T09:37:17.871Z,1016.14
2022-10-09T09:38:17.869Z,1016.14
2022-10-09T09:41:18.819Z,1016.13
2022-10-09T09:42:17.808Z,1016.14
2022-10-09T09:43:17.797Z,1016.08
2022-10-09T09:44:17.803Z,1016.11
2022-10-09T09:45:17.795Z,1016.13
2022-10-09T09:46:17.843Z,1016.11
2022-10-09T09:47:17.761Z,1016.08
2022-10-09T09:48:17.767Z,1016.05
2022-10-09T09:49:17.740Z,1016.00
2022-10-09T09:50:42.280Z,1015.94
2022-10-09T09:51:29.380Z,1015.99
2022-10-09T09:52:18.702Z,1015.95
2022-10-09T09:53:17.708Z,1015.90
2022-10-09T09:54:17.686Z,1015.92
2022-10-09T09:55:17.711Z,1015.92
2022-10-09T09:56:17.666Z,1015.86
2022-10-09T09:57:22.019Z,1015.87
2022-10-09T09:58:17.649Z,1015.88
2022-10-09T09:59:17.638Z,1015.87
2022-10-09T10:00:17.626Z,1015.86
2022-10-09T10:01:18.534Z,1015.87
2022-10-09T10:02:17.723Z,1015.83
2022-10-09T10:03:17.583Z,1015.83
2022-10-09T10:04:17.572Z,1015.84
2022-10-09T10:05:17.579Z,1015.77
2022-10-09T10:06:17.554Z,1015.75
2022-10-09T10:07:17.547Z,1015.71
2022-10-09T10:08:17.530Z,1015.69
2022-10-09T10:09:17.532Z,1015.72
2022-10-09T10:10:23.975Z,1015.75
2022-10-09T10:11:18.532Z,1015.69
2022-10-09T10:12:17.483Z,1015.69
2022-10-09T10:13:17.483Z,1015.64
2022-10-09T10:14:19.034Z,1015.66
2022-10-09T10:15:17.458Z,1015.65
2022-10-09T10:16:17.478Z,1015.58
2022-10-09T10:17:17.448Z,1015.58
2022-10-09T10:18:17.426Z,1015.54
2022-10-09T10:19:17.412Z,1015.49
2022-10-09T10:20:17.402Z,1015.51
2022-10-09T10:21:17.403Z,1015.49
2022-10-09T10:22:17.993Z,1015.51
2022-10-09T10:23:17.360Z,1015.53
2022-10-09T10:24:17.356Z,1015.45
2022-10-09T10:25:17.349Z,1015.48
2022-10-09T10:26:17.334Z,1015.42
2022-10-09T10:27:17.358Z,1015.44
2022-10-09T10:28:17.352Z,1015.46
2022-10-09T10:29:17.300Z,1015.43
2022-10-09T10:30:17.292Z,1015.46
2022-10-09T10:31:17.327Z,1015.38
2022-10-09T10:32:17.269Z,1015.36
2022-10-09T10:33:17.261Z,1015.32
2022-10-09T10:34:17.238Z,1015.24
2022-10-09T10:35:17.232Z,1015.27
2022-10-09T10:36:17.229Z,1015.26
2022-10-09T10:37:17.229Z,1015.24
2022-10-09T10:38:17.211Z,1015.21
2022-10-09T10:39:17.195Z,1015.21
2022-10-09T10:40:17.171Z,1015.17
2022-10-09T10:41:17.213Z,1015.14
2022-10-09T10:42:17.150Z,1015.11
2022-10-09T10:43:18.018Z,1015.17
2022-10-09T10:44:17.142Z,1015.13
2022-10-09T10:45:17.113Z,1015.12
2022-10-09T10:46:17.220Z,1015.08
2022-10-09T10:47:17.098Z,1015.10
2022-10-09T10:48:17.105Z,1015.09
2022-10-09T10:49:17.082Z,1015.09
2022-10-09T10:50:17.193Z,1014.95
2022-10-09T10:51:17.054Z,1014.97
2022-10-09T10:52:17.033Z,1014.97
2022-10-09T10:53:17.029Z,1014.93
2022-10-09T10:54:17.028Z,1014.94
2022-10-09T10:55:17.019Z,1014.92
2022-10-09T10:56:17.018Z,1014.92
2022-10-09T10:57:16.995Z,1014.90
2022-10-09T10:58:17.092Z,1014.87
2022-10-09T10:59:16.986Z,1014.80
2022-10-09T11:00:17.004Z,1014.79
2022-10-09T11:01:17.074Z,1014.77
2022-10-09T11:02:16.922Z,1014.78
2022-10-09T11:03:16.939Z,1014.76
2022-10-09T11:04:16.905Z,1014.75
2022-10-09T11:05:16.924Z,1014.73
2022-10-09T11:06:16.883Z,1014.74
2022-10-09T11:07:16.872Z,1014.71
2022-10-09T11:08:16.854Z,1014.71
2022-10-09T11:09:16.855Z,1014.71
2022-10-09T11:10:16.961Z,1014.70
2022-10-09T11:11:16.833Z,1014.62
2022-10-09T11:12:24.879Z,1014.64
2022-10-09T11:13:17.807Z,1014.68
2022-10-09T11:14:20.194Z,1014.61
2022-10-09T11:15:16.800Z,1014.60
2022-10-09T11:16:16.812Z,1014.58
2022-10-09T11:17:16.755Z,1014.54
2022-10-09T11:18:16.764Z,1014.54
2022-10-09T11:19:16.739Z,1014.53
2022-10-09T11:20:16.718Z,1014.50
2022-10-09T11:21:16.713Z,1014.50
2022-10-09T11:22:16.717Z,1014.44
2022-10-09T11:23:16.695Z,1014.46
2022-10-09T11:24:16.688Z,1014.44
2022-10-09T11:25:16.668Z,1014.43
2022-10-09T11:26:16.657Z,1014.40
2022-10-09T11:27:16.663Z,1014.42
2022-10-09T11:28:16.757Z,1014.33
2022-10-09T11:29:16.632Z,1014.36
2022-10-09T11:30:16.651Z,1014.36
2022-10-09T11:31:16.699Z,1014.31
2022-10-09T11:32:17.489Z,1014.31
2022-10-09T11:33:16.573Z,1014.33
2022-10-09T11:34:16.585Z,1014.31
2022-10-09T11:35:16.558Z,1014.29
2022-10-09T11:36:16.547Z,1014.32
2022-10-09T11:37:16.536Z,1014.24
2022-10-09T11:38:16.531Z,1014.19
2022-10-09T11:39:16.518Z,1014.18
2022-10-09T11:40:16.507Z,1014.20
2022-10-09T11:41:16.492Z,1014.18
2022-10-09T11:42:16.507Z,1014.14
2022-10-09T11:43:16.466Z,1014.12
2022-10-09T11:44:16.463Z,1014.09
2022-10-09T11:45:16.448Z,1014.05
2022-10-09T11:46:16.467Z,1014.09
2022-10-09T11:47:16.484Z,1014.10
2022-10-09T11:48:16.408Z,1014.09
2022-10-09T11:49:16.397Z,1014.09
2022-10-09T11:50:16.393Z,1014.08
2022-10-09T11:51:16.391Z,1014.07
2022-10-09T11:52:16.376Z,1014.09
2022-10-09T11:53:16.356Z,1014.08
2022-10-09T11:54:16.337Z,1014.04
2022-10-09T11:55:16.332Z,1014.05
2022-10-09T11:56:16.334Z,1014.01
2022-10-09T11:57:16.312Z,1013.95
2022-10-09T11:58:16.338Z,1013.91
2022-10-09T11:59:16.312Z,1013.94
2022-10-09T12:00:16.278Z,1013.92
2022-10-09T12:01:16.329Z,1013.90
2022-10-09T12:02:16.360Z,1013.81
2022-10-09T12:03:16.271Z,1013.83
2022-10-09T12:04:20.878Z,1013.82
2022-10-09T12:05:17.215Z,1013.77
2022-10-09T12:06:16.216Z,1013.79
2022-10-09T12:07:17.004Z,1013.71